Time;durP1;ratioP1;P1;durP2;ratioP2;P2;SDS_P1;SDS_P2;PMS_P1;PMS_P2;Temp;Humidity;BMP_temperature;BMP_pressure;BME280_temperature;BME280_humidity;BME280_pressure;Samples;Min_cycle;Max_cycle;Signal;HPM_P1;HPM_P2
2023/03/03 00:00:46;;;;;;;4.45;4.20;;;2.20;99.90;;;;;;5045634;28;20627;-62
2023/03/03 00:03:17;;;;;;;4.17;3.87;;;2.30;99.90;;;;;;5041359;28;20220;-62
2023/03/03 00:05:44;;;;;;;4.40;4.20;;;2.20;99.90;;;;;;5039673;28;20242;-62
2023/03/03 00:08:11;;;;;;;3.97;3.70;;;2.10;99.90;;;;;;5036645;28;20263;-62
2023/03/03 00:10:40;;;;;;;3.90;3.70;;;2.20;99.90;;;;;;5033595;28;20220;-63
2023/03/03 00:13:15;;;;;;;3.85;3.65;;;2.10;99.90;;;;;;5039242;28;20223;-63
2023/03/03 00:15:42;;;;;;;4.20;3.97;;;2.10;99.90;;;;;;5036512;28;20200;-62
2023/03/03 00:18:30;;;;;;;4.35;4.05;;;2.10;99.90;;;;;;5037608;28;20192;-63
2023/03/03 00:20:59;;;;;;;4.40;4.10;;;2.10;99.90;;;;;;5042786;28;20210;-63
2023/03/03 00:23:34;;;;;;;4.20;3.90;;;2.10;99.90;;;;;;5048310;28;20212;-63
2023/03/03 00:26:13;;;;;;;4.70;4.40;;;2.10;99.90;;;;;;5033990;28;20581;-62
2023/03/03 00:28:46;;;;;;;4.43;4.13;;;2.10;99.90;;;;;;5034055;28;20196;-63
2023/03/03 00:31:17;;;;;;;4.32;4.03;;;2.00;99.90;;;;;;5034553;28;20203;-63
2023/03/03 00:33:49;;;;;;;4.22;3.92;;;2.00;99.90;;;;;;5042298;28;20294;-63
2023/03/03 00:36:31;;;;;;;4.60;4.30;;;2.00;99.90;;;;;;5036445;28;20208;-63
2023/03/03 00:39:11;;;;;;;4.10;3.90;;;1.90;99.90;;;;;;5038142;28;20208;-62
2023/03/03 00:41:39;;;;;;;4.50;4.20;;;1.90;99.90;;;;;;5040707;28;20679;-63
2023/03/03 00:44:42;;;;;;;4.20;4.00;;;1.90;99.90;;;;;;5046879;28;20211;-62
2023/03/03 00:47:36;;;;;;;4.22;4.00;;;1.90;99.90;;;;;;5033750;28;20200;-63
2023/03/03 00:50:32;;;;;;;4.53;4.23;;;1.80;99.90;;;;;;5025166;28;20247;-66
2023/03/03 00:53:05;;;;;;;4.25;3.97;;;1.80;99.90;;;;;;5049868;28;20328;-63
2023/03/03 00:55:33;;;;;;;4.40;4.10;;;1.80;99.90;;;;;;5042655;28;20202;-63
2023/03/03 00:58:02;;;;;;;4.47;4.18;;;1.70;99.90;;;;;;5040469;28;20268;-62
2023/03/03 01:00:29;;;;;;;4.03;3.80;;;1.70;99.90;;;;;;5037224;28;20216;-64
2023/03/03 01:02:56;;;;;;;4.37;4.07;;;1.70;99.90;;;;;;5043879;28;20228;-63
2023/03/03 01:05:23;;;;;;;5.57;5.17;;;1.70;99.90;;;;;;5039782;28;20234;-64
2023/03/03 01:07:50;;;;;;;4.35;4.07;;;1.70;99.90;;;;;;5045623;28;20242;-65
2023/03/03 01:10:17;;;;;;;4.72;4.43;;;1.80;99.90;;;;;;5034638;28;20311;-62
2023/03/03 01:12:44;;;;;;;4.65;4.35;;;1.70;99.90;;;;;;5033839;28;20224;-63
2023/03/03 01:15:14;;;;;;;4.35;4.15;;;1.60;99.90;;;;;;5030863;28;20682;-63
2023/03/03 01:17:41;;;;;;;4.90;4.60;;;1.60;99.90;;;;;;5033070;28;20271;-65
2023/03/03 01:20:11;;;;;;;4.17;3.97;;;1.60;99.90;;;;;;5032232;28;20208;-63
2023/03/03 01:22:38;;;;;;;4.72;4.43;;;1.60;99.90;;;;;;5031584;28;20229;-63
2023/03/03 01:25:05;;;;;;;5.13;4.82;;;1.60;99.90;;;;;;5030439;28;20204;-63
2023/03/03 01:27:32;;;;;;;4.22;3.92;;;1.60;99.90;;;;;;5035747;28;20287;-63
2023/03/03 01:29:59;;;;;;;4.63;4.32;;;1.60;99.90;;;;;;5050528;28;20223;-63
2023/03/03 01:32:28;;;;;;;4.63;4.32;;;1.70;99.90;;;;;;5049627;28;20238;-63
2023/03/03 01:34:55;;;;;;;4.78;4.38;;;1.70;99.90;;;;;;5049264;28;20200;-63
2023/03/03 01:37:22;;;;;;;4.93;4.63;;;1.70;99.90;;;;;;5050461;28;20230;-63
2023/03/03 01:39:50;;;;;;;4.20;3.90;;;1.80;99.90;;;;;;5045196;28;20192;-63
2023/03/03 01:42:18;;;;;;;4.53;4.23;;;1.80;99.90;;;;;;5039673;28;20220;-64
2023/03/03 01:44:45;;;;;;;4.53;4.22;;;1.80;99.90;;;;;;5037490;28;20894;-64
2023/03/03 01:47:15;;;;;;;4.53;4.22;;;1.90;99.90;;;;;;5044544;28;20227;-62
2023/03/03 01:49:48;;;;;;;4.82;4.53;;;1.80;99.90;;;;;;5049440;28;20214;-63
2023/03/03 01:52:26;;;;;;;4.20;4.00;;;1.80;99.90;;;;;;5049393;28;20694;-62
2023/03/03 01:54:59;;;;;;;4.70;4.40;;;1.80;99.90;;;;;;5052767;28;20188;-63
2023/03/03 01:57:31;;;;;;;4.40;4.10;;;1.70;99.90;;;;;;5053794;28;20665;-63
2023/03/03 02:00:00;;;;;;;4.95;4.65;;;1.70;99.90;;;;;;5053972;28;20253;-63
2023/03/03 02:02:28;;;;;;;4.68;4.38;;;1.60;99.90;;;;;;5056711;28;20731;-64
2023/03/03 02:04:56;;;;;;;5.10;4.80;;;1.60;99.90;;;;;;5056115;28;20734;-64
2023/03/03 02:07:25;;;;;;;5.13;4.80;;;1.60;99.90;;;;;;5053942;28;20200;-62
2023/03/03 02:09:57;;;;;;;4.90;4.60;;;1.60;99.90;;;;;;5044153;28;20221;-63
2023/03/03 02:12:32;;;;;;;4.90;4.60;;;1.60;99.90;;;;;;5041771;28;20281;-63
2023/03/03 02:14:59;;;;;;;5.07;4.78;;;1.60;99.90;;;;;;5041096;28;20212;-64
2023/03/03 02:17:26;;;;;;;5.32;5.03;;;1.60;99.90;;;;;;5051404;28;20227;-63
2023/03/03 02:19:59;;;;;;;5.47;5.18;;;1.60;99.90;;;;;;5042001;28;20189;-62
2023/03/03 02:22:34;;;;;;;4.95;4.60;;;1.50;99.90;;;;;;5040265;28;20236;-63
2023/03/03 02:25:03;;;;;;;5.82;5.43;;;1.50;99.90;;;;;;5040794;28;20211;-64
2023/03/03 02:27:32;;;;;;;5.47;5.17;;;1.50;99.90;;;;;;5042531;28;20200;-63
2023/03/03 02:30:09;;;;;;;5.30;5.00;;;1.40;99.90;;;;;;5037693;28;20220;-63
2023/03/03 02:32:35;;;;;;;5.07;4.78;;;1.40;99.90;;;;;;5046995;28;20309;-63
2023/03/03 02:35:17;;;;;;;5.20;4.90;;;1.30;99.90;;;;;;5052677;28;20283;-63
2023/03/03 02:37:44;;;;;;;5.43;5.03;;;1.30;99.90;;;;;;5043352;28;20200;-63
2023/03/03 02:40:13;;;;;;;5.05;4.75;;;1.30;99.90;;;;;;5040857;28;20234;-64
2023/03/03 02:42:43;;;;;;;4.72;4.43;;;1.20;99.90;;;;;;5043280;28;20224;-64
2023/03/03 02:45:10;;;;;;;5.60;5.20;;;1.20;99.90;;;;;;5051022;28;20286;-62
2023/03/03 02:47:37;;;;;;;4.70;4.40;;;1.20;99.90;;;;;;5051859;28;20226;-63
2023/03/03 02:50:04;;;;;;;5.10;4.70;;;1.20;99.90;;;;;;5051524;28;20358;-64
2023/03/03 02:52:31;;;;;;;4.95;4.65;;;1.10;99.90;;;;;;5051798;28;20224;-62
2023/03/03 02:54:58;;;;;;;5.72;5.32;;;1.20;99.90;;;;;;5050930;28;20194;-64
2023/03/03 02:57:24;;;;;;;5.32;5.03;;;1.30;99.90;;;;;;5051667;28;20311;-63
2023/03/03 02:59:53;;;;;;;5.18;4.88;;;1.40;99.90;;;;;;5051305;28;20200;-64
2023/03/03 03:02:20;;;;;;;5.00;4.70;;;1.40;99.90;;;;;;5051072;28;20254;-64
2023/03/03 03:04:46;;;;;;;4.75;4.45;;;1.50;99.90;;;;;;5049768;28;20211;-64
2023/03/03 03:07:13;;;;;;;4.88;4.57;;;1.50;99.90;;;;;;5051640;28;20302;-63
2023/03/03 03:09:40;;;;;;;5.20;4.90;;;1.40;99.90;;;;;;5051179;28;20848;-63
2023/03/03 03:12:07;;;;;;;5.03;4.73;;;1.40;99.90;;;;;;5053421;28;20236;-63
2023/03/03 03:14:34;;;;;;;4.85;4.55;;;1.40;99.90;;;;;;5053068;28;20696;-63
2023/03/03 03:17:03;;;;;;;4.82;4.53;;;1.40;99.90;;;;;;5053689;28;20299;-63
2023/03/03 03:19:30;;;;;;;4.70;4.40;;;1.50;99.90;;;;;;5051510;28;20388;-63
2023/03/03 03:21:57;;;;;;;4.68;4.38;;;1.40;99.90;;;;;;5051930;28;20289;-63
2023/03/03 03:24:24;;;;;;;4.87;4.57;;;1.50;99.90;;;;;;5051486;28;20208;-63
2023/03/03 03:26:51;;;;;;;4.97;4.67;;;1.40;99.90;;;;;;5051675;28;20204;-62
2023/03/03 03:29:18;;;;;;;5.00;4.70;;;1.40;99.90;;;;;;5051003;28;20668;-63
2023/03/03 03:31:45;;;;;;;5.47;5.07;;;1.40;99.90;;;;;;5051144;28;20231;-64
2023/03/03 03:34:13;;;;;;;4.75;4.45;;;1.40;99.90;;;;;;5050070;28;20207;-63
2023/03/03 03:36:40;;;;;;;5.70;5.28;;;1.40;99.90;;;;;;5050873;28;20287;-63
2023/03/03 03:39:07;;;;;;;4.90;4.60;;;1.30;99.90;;;;;;5051819;28;20203;-63
2023/03/03 03:41:35;;;;;;;6.03;5.63;;;1.30;99.90;;;;;;5054804;28;20230;-64
2023/03/03 03:44:02;;;;;;;5.50;5.10;;;1.20;99.90;;;;;;5053759;28;20215;-64
2023/03/03 03:46:29;;;;;;;5.10;4.80;;;1.20;99.90;;;;;;5050845;28;20592;-63
2023/03/03 03:48:56;;;;;;;5.10;4.80;;;1.20;99.90;;;;;;5050371;28;20598;-62
2023/03/03 03:51:24;;;;;;;4.95;4.65;;;1.20;99.90;;;;;;5050144;28;20228;-64
2023/03/03 03:53:51;;;;;;;5.10;4.80;;;1.20;99.90;;;;;;5049966;28;20215;-64
2023/03/03 03:56:18;;;;;;;4.97;4.68;;;1.20;99.90;;;;;;5050034;28;20200;-63
2023/03/03 03:58:45;;;;;;;5.30;4.90;;;1.20;99.90;;;;;;5050057;28;20229;-64
2023/03/03 04:01:11;;;;;;;4.68;4.38;;;1.20;99.90;;;;;;5050155;28;20688;-63
2023/03/03 04:03:38;;;;;;;5.20;4.80;;;1.20;99.90;;;;;;5050536;28;20208;-63
2023/03/03 04:06:05;;;;;;;4.68;4.38;;;1.30;99.90;;;;;;5050338;28;20229;-63
2023/03/03 04:08:34;;;;;;;4.95;4.65;;;1.40;99.90;;;;;;5050682;28;20289;-63
2023/03/03 04:11:00;;;;;;;4.75;4.45;;;1.40;99.90;;;;;;5050048;28;20315;-64
2023/03/03 04:13:30;;;;;;;4.60;4.30;;;1.40;99.90;;;;;;5050315;28;20671;-64
2023/03/03 04:15:57;;;;;;;4.90;4.55;;;1.50;99.90;;;;;;5050889;28;20247;-64
2023/03/03 04:18:24;;;;;;;5.13;4.72;;;1.50;99.90;;;;;;5054889;28;20214;-65
2023/03/03 04:20:51;;;;;;;4.93;4.60;;;1.60;99.90;;;;;;5052108;28;20212;-63
2023/03/03 04:23:18;;;;;;;5.00;4.70;;;1.60;99.90;;;;;;5054265;28;20314;-63
2023/03/03 04:25:47;;;;;;;4.95;4.65;;;1.60;99.90;;;;;;5051916;28;20210;-63
2023/03/03 04:28:14;;;;;;;4.40;4.10;;;1.70;99.90;;;;;;5050984;28;20200;-63
2023/03/03 04:30:41;;;;;;;4.80;4.50;;;1.60;99.90;;;;;;5051044;28;20230;-64
2023/03/03 04:33:08;;;;;;;5.28;4.97;;;1.70;99.90;;;;;;5050111;28;20633;-63
2023/03/03 04:35:35;;;;;;;5.13;4.82;;;1.70;99.90;;;;;;5049478;28;20204;-63
2023/03/03 04:38:02;;;;;;;5.07;4.68;;;1.70;99.90;;;;;;5050082;28;20214;-64
2023/03/03 04:40:29;;;;;;;4.90;4.60;;;1.70;99.90;;;;;;5049796;28;20213;-64
2023/03/03 04:42:57;;;;;;;4.87;4.53;;;1.70;99.90;;;;;;5049606;28;20759;-63
2023/03/03 04:45:24;;;;;;;5.13;4.78;;;1.70;99.90;;;;;;5049619;28;20211;-63
2023/03/03 04:47:50;;;;;;;5.38;5.07;;;1.70;99.90;;;;;;5050251;28;20298;-64
2023/03/03 04:50:17;;;;;;;5.32;4.93;;;1.70;99.90;;;;;;5050506;28;20281;-64
2023/03/03 04:52:44;;;;;;;4.95;4.65;;;1.80;99.90;;;;;;5051236;28;20306;-63
2023/03/03 04:55:11;;;;;;;5.10;4.70;;;1.80;99.90;;;;;;5049492;28;20700;-64
2023/03/03 04:57:38;;;;;;;4.85;4.55;;;1.90;99.90;;;;;;5050201;28;20212;-65
2023/03/03 05:00:07;;;;;;;4.80;4.50;;;2.00;99.90;;;;;;5049826;28;20207;-62
2023/03/03 05:02:42;;;;;;;4.83;4.53;;;2.10;99.90;;;;;;5049832;28;20228;-62
2023/03/03 05:05:18;;;;;;;4.60;4.30;;;2.10;99.90;;;;;;5049973;28;20246;-64
2023/03/03 05:07:56;;;;;;;4.80;4.40;;;2.20;99.90;;;;;;5051594;28;20203;-63
2023/03/03 05:10:23;;;;;;;4.80;4.50;;;2.30;99.90;;;;;;5062661;28;20215;-63
2023/03/03 05:12:50;;;;;;;4.75;4.45;;;2.30;99.90;;;;;;5054741;28;20314;-62
2023/03/03 05:15:18;;;;;;;4.40;4.10;;;2.30;99.90;;;;;;5048437;28;20214;-63
2023/03/03 05:17:45;;;;;;;4.85;4.55;;;2.30;99.90;;;;;;5046829;28;20204;-62
2023/03/03 05:20:13;;;;;;;5.05;4.72;;;2.30;99.90;;;;;;5049155;28;20238;-63
2023/03/03 05:22:40;;;;;;;5.00;4.60;;;2.40;99.90;;;;;;5049559;28;20224;-63
2023/03/03 05:25:08;;;;;;;5.50;5.10;;;2.40;99.90;;;;;;5049572;28;20299;-62
2023/03/03 05:27:35;;;;;;;5.60;5.20;;;2.40;99.90;;;;;;5057071;28;20207;-63
2023/03/03 05:30:02;;;;;;;4.95;4.65;;;2.40;99.90;;;;;;5053662;28;21081;-64
2023/03/03 05:32:30;;;;;;;4.97;4.68;;;2.40;99.90;;;;;;5053889;28;20238;-63
2023/03/03 05:34:57;;;;;;;5.28;4.97;;;2.30;99.90;;;;;;5052758;28;20204;-63
2023/03/03 05:37:24;;;;;;;5.35;5.03;;;2.30;99.90;;;;;;5056519;28;20203;-63
2023/03/03 05:39:50;;;;;;;4.70;4.40;;;2.30;99.90;;;;;;5053602;28;20207;-63
2023/03/03 05:42:18;;;;;;;4.80;4.50;;;2.30;99.90;;;;;;5053311;28;20219;-63
2023/03/03 05:44:44;;;;;;;5.03;4.72;;;2.40;99.90;;;;;;5051914;28;20239;-63
2023/03/03 05:47:11;;;;;;;4.93;4.63;;;2.40;99.90;;;;;;5059129;28;20203;-64
2023/03/03 05:49:40;;;;;;;5.03;4.72;;;2.40;99.90;;;;;;5055550;28;20200;-63
2023/03/03 05:52:07;;;;;;;5.40;5.00;;;2.50;99.90;;;;;;5052605;28;20597;-64
2023/03/03 05:54:34;;;;;;;4.60;4.30;;;2.60;99.90;;;;;;5045823;28;20240;-64
2023/03/03 05:57:01;;;;;;;5.22;4.93;;;2.50;99.90;;;;;;5052619;28;20200;-64
2023/03/03 05:59:28;;;;;;;4.70;4.40;;;2.50;99.90;;;;;;5053096;28;20211;-63
2023/03/03 06:01:55;;;;;;;5.23;4.93;;;2.60;99.90;;;;;;5057022;28;20232;-64
2023/03/03 06:04:22;;;;;;;5.10;4.80;;;2.60;99.90;;;;;;5066903;28;20204;-64
2023/03/03 06:06:50;;;;;;;4.90;4.60;;;2.60;99.90;;;;;;5061511;28;20209;-63
2023/03/03 06:09:18;;;;;;;5.03;4.72;;;2.60;99.90;;;;;;5073059;28;20549;-62
2023/03/03 06:11:44;;;;;;;4.57;4.27;;;2.70;99.90;;;;;;5072179;28;20289;-64
2023/03/03 06:14:11;;;;;;;4.70;4.40;;;2.70;99.90;;;;;;5072539;28;20203;-64
2023/03/03 06:16:39;;;;;;;5.57;5.07;;;2.70;99.90;;;;;;5060603;28;20207;-64
2023/03/03 06:19:06;;;;;;;4.90;4.60;;;2.80;99.90;;;;;;5055221;28;20257;-64
2023/03/03 06:21:32;;;;;;;4.83;4.53;;;2.80;99.90;;;;;;5052648;28;20230;-65
2023/03/03 06:24:01;;;;;;;4.63;4.33;;;2.80;99.90;;;;;;5052367;28;20567;-65
2023/03/03 06:26:27;;;;;;;4.97;4.67;;;2.90;99.90;;;;;;5052597;28;20212;-64
2023/03/03 06:28:54;;;;;;;4.70;4.40;;;2.90;99.90;;;;;;5067889;28;20673;-63
2023/03/03 06:31:21;;;;;;;4.80;4.50;;;2.90;99.90;;;;;;5070897;28;20223;-63
2023/03/03 06:33:48;;;;;;;4.83;4.53;;;3.00;99.90;;;;;;5052350;28;20220;-64
2023/03/03 06:36:15;;;;;;;4.55;4.25;;;3.00;99.90;;;;;;5052794;28;20206;-63
2023/03/03 06:38:42;;;;;;;4.30;4.00;;;3.10;99.90;;;;;;5051089;28;20281;-64
2023/03/03 06:41:10;;;;;;;4.20;3.90;;;3.20;99.90;;;;;;5049466;28;20211;-62
2023/03/03 06:43:37;;;;;;;4.97;4.60;;;3.20;99.90;;;;;;5046504;28;20307;-63
2023/03/03 06:46:05;;;;;;;4.23;3.93;;;3.20;99.90;;;;;;5055597;28;20682;-64
2023/03/03 06:48:32;;;;;;;3.83;3.63;;;3.30;99.90;;;;;;5062195;28;20214;-63
2023/03/03 06:51:01;;;;;;;5.05;4.65;;;3.30;99.90;;;;;;5052401;28;20206;-64
2023/03/03 06:53:28;;;;;;;3.97;3.77;;;3.40;99.90;;;;;;5051986;28;20323;-63
2023/03/03 06:55:57;;;;;;;4.37;4.10;;;3.40;99.90;;;;;;5043025;28;20200;-64
2023/03/03 06:58:29;;;;;;;4.00;3.70;;;3.50;99.90;;;;;;5051791;28;20203;-64
2023/03/03 07:00:58;;;;;;;4.03;3.80;;;3.50;99.90;;;;;;5052036;28;20290;-63
2023/03/03 07:03:27;;;;;;;4.60;4.30;;;3.60;99.90;;;;;;5051650;28;20273;-64
2023/03/03 07:05:54;;;;;;;5.17;4.77;;;3.60;99.90;;;;;;5053126;28;20207;-63
2023/03/03 07:08:23;;;;;;;4.40;4.10;;;3.60;99.90;;;;;;5054195;28;20214;-65
2023/03/03 07:10:52;;;;;;;4.57;4.17;;;3.70;99.90;;;;;;5062717;28;20685;-64
2023/03/03 07:13:21;;;;;;;4.23;3.93;;;3.70;99.90;;;;;;5074311;28;20611;-64
2023/03/03 07:15:51;;;;;;;4.28;4.07;;;3.70;99.90;;;;;;5071491;28;20204;-64
2023/03/03 07:18:39;;;;;;;4.50;4.20;;;3.80;99.90;;;;;;5072168;28;20194;-64
2023/03/03 07:21:19;;;;;;;4.03;3.63;;;3.70;99.90;;;;;;5071877;28;20219;-64
2023/03/03 07:23:48;;;;;;;4.63;4.32;;;3.80;99.90;;;;;;5071829;28;20199;-64
2023/03/03 07:26:17;;;;;;;3.97;3.78;;;3.80;99.90;;;;;;5071556;28;20204;-64
2023/03/03 07:28:45;;;;;;;3.83;3.63;;;3.90;99.90;;;;;;5071685;28;20629;-64
2023/03/03 07:31:29;;;;;;;4.05;3.85;;;3.90;99.90;;;;;;5071100;28;20814;-64
2023/03/03 07:33:59;;;;;;;4.53;4.20;;;4.00;99.90;;;;;;5070926;28;20285;-62
2023/03/03 07:36:29;;;;;;;4.47;4.07;;;4.00;99.90;;;;;;5071684;28;20573;-63
2023/03/03 07:38:59;;;;;;;4.57;4.27;;;4.00;99.90;;;;;;5071491;28;20219;-62
2023/03/03 07:41:27;;;;;;;3.97;3.77;;;4.00;99.90;;;;;;5071269;28;20230;-63
2023/03/03 07:43:55;;;;;;;4.83;4.53;;;4.10;99.90;;;;;;5070840;28;20214;-63
2023/03/03 07:46:30;;;;;;;4.70;4.40;;;4.10;99.90;;;;;;5072611;28;20206;-63
2023/03/03 07:48:58;;;;;;;4.40;4.10;;;4.20;99.90;;;;;;5076537;28;20193;-63
2023/03/03 07:51:27;;;;;;;4.40;4.10;;;4.20;99.90;;;;;;5072326;28;20227;-64
2023/03/03 07:54:10;;;;;;;3.90;3.70;;;4.30;99.90;;;;;;5071619;28;20206;-64
2023/03/03 07:56:37;;;;;;;4.50;4.20;;;4.30;99.90;;;;;;5071393;28;20646;-63
2023/03/03 07:59:20;;;;;;;5.40;5.00;;;4.40;99.90;;;;;;5072875;28;20207;-63
2023/03/03 08:01:52;;;;;;;4.57;4.27;;;4.50;99.90;;;;;;5078151;28;20223;-62
2023/03/03 08:04:23;;;;;;;4.37;4.07;;;4.50;99.90;;;;;;5070306;28;20915;-62
2023/03/03 08:06:52;;;;;;;5.10;4.80;;;4.40;99.90;;;;;;5071548;28;20211;-64
2023/03/03 08:09:43;;;;;;;5.13;4.82;;;4.50;99.90;;;;;;5071233;28;20223;-64
2023/03/03 08:12:30;;;;;;;5.53;5.20;;;4.40;99.90;;;;;;5070430;28;20235;-63
2023/03/03 08:15:07;;;;;;;4.90;4.60;;;4.40;99.90;;;;;;5069899;28;20906;-64
2023/03/03 08:17:38;;;;;;;4.80;4.50;;;4.40;99.90;;;;;;5071193;28;20563;-62
2023/03/03 08:20:42;;;;;;;5.30;4.90;;;4.40;99.90;;;;;;5069236;28;20198;-63
2023/03/03 08:23:09;;;;;;;5.20;4.80;;;4.50;99.90;;;;;;5071170;28;20223;-64
2023/03/03 08:25:36;;;;;;;5.33;5.03;;;4.60;99.90;;;;;;5070426;28;20579;-64
2023/03/03 08:28:02;;;;;;;5.07;4.77;;;4.60;99.90;;;;;;5070814;28;20206;-63
2023/03/03 08:30:30;;;;;;;5.50;5.10;;;4.50;99.90;;;;;;5068748;28;21087;-64
2023/03/03 08:32:59;;;;;;;5.67;5.27;;;4.60;99.90;;;;;;5071007;28;20280;-63
2023/03/03 08:35:26;;;;;;;5.67;5.37;;;4.60;99.90;;;;;;5070544;28;20748;-63
2023/03/03 08:37:54;;;;;;;5.30;5.00;;;4.70;99.90;;;;;;5071669;28;20203;-64
2023/03/03 08:40:20;;;;;;;4.90;4.60;;;4.60;99.90;;;;;;5070907;28;20272;-63
2023/03/03 08:42:47;;;;;;;4.80;4.50;;;4.70;99.90;;;;;;5071040;28;20613;-63
2023/03/03 08:45:14;;;;;;;5.73;5.33;;;4.70;99.90;;;;;;5070078;28;20207;-65
2023/03/03 08:47:41;;;;;;;5.70;5.30;;;4.70;99.90;;;;;;5070846;28;20207;-63
2023/03/03 08:50:10;;;;;;;5.60;5.20;;;4.60;99.90;;;;;;5071004;28;20203;-63
2023/03/03 08:52:37;;;;;;;5.50;5.07;;;4.50;99.90;;;;;;5071611;28;20277;-65
2023/03/03 08:55:05;;;;;;;5.90;5.40;;;4.40;99.90;;;;;;5079513;28;20282;-64
2023/03/03 08:57:31;;;;;;;5.93;5.50;;;4.60;99.90;;;;;;5084448;28;20209;-64
2023/03/03 08:59:58;;;;;;;5.53;5.13;;;4.70;99.90;;;;;;5083251;28;20270;-64
2023/03/03 09:02:26;;;;;;;6.03;5.63;;;4.70;99.90;;;;;;5084672;28;20306;-64
2023/03/03 09:04:52;;;;;;;6.40;6.00;;;4.80;99.90;;;;;;5087802;28;20230;-65
2023/03/03 09:07:21;;;;;;;5.57;5.20;;;4.80;99.90;;;;;;5087435;28;20312;-65
2023/03/03 09:09:47;;;;;;;6.00;5.60;;;4.70;99.90;;;;;;5078919;28;20673;-64
2023/03/03 09:12:17;;;;;;;6.25;5.75;;;4.60;99.90;;;;;;5076879;28;20231;-64
2023/03/03 09:14:44;;;;;;;6.57;6.03;;;4.70;99.90;;;;;;5084530;28;20207;-64
2023/03/03 09:17:25;;;;;;;6.53;6.13;;;4.70;99.90;;;;;;5075641;28;20203;-64
2023/03/03 09:19:54;;;;;;;6.93;6.43;;;4.80;99.90;;;;;;5073937;28;20191;-65
2023/03/03 09:22:25;;;;;;;5.93;5.53;;;4.80;99.90;;;;;;5074892;28;20219;-61
2023/03/03 09:24:54;;;;;;;5.87;5.57;;;4.90;99.90;;;;;;5077523;28;20192;-61
2023/03/03 09:27:28;;;;;;;6.17;5.77;;;5.00;99.90;;;;;;5077719;28;20206;-60
2023/03/03 09:29:55;;;;;;;6.43;6.03;;;5.00;99.90;;;;;;5069020;28;21114;-60
2023/03/03 09:32:31;;;;;;;6.82;6.43;;;5.20;99.90;;;;;;5055250;28;20338;-62
2023/03/03 09:34:59;;;;;;;5.90;5.50;;;5.20;99.90;;;;;;5059700;28;20203;-61
2023/03/03 09:37:31;;;;;;;6.17;5.67;;;5.30;99.90;;;;;;5056761;28;20577;-60
2023/03/03 09:39:58;;;;;;;6.13;5.73;;;5.50;99.90;;;;;;5060666;28;20199;-60
2023/03/03 09:42:50;;;;;;;6.20;5.80;;;5.70;99.90;;;;;;5064034;28;20215;-61
2023/03/03 09:45:48;;;;;;;6.38;5.97;;;5.60;99.90;;;;;;5064725;28;20670;-61
2023/03/03 09:48:38;;;;;;;6.28;5.88;;;5.40;99.90;;;;;;5053789;28;20192;-59
2023/03/03 09:51:26;;;;;;;6.53;6.13;;;5.70;99.90;;;;;;5053462;28;20200;-60
2023/03/03 09:54:13;;;;;;;7.15;6.65;;;5.80;99.90;;;;;;5053057;28;20220;-61
2023/03/03 09:56:44;;;;;;;6.77;6.30;;;5.70;99.90;;;;;;5053255;28;20222;-60
2023/03/03 09:59:26;;;;;;;6.57;6.07;;;5.70;99.90;;;;;;5053551;28;20628;-61
2023/03/03 10:02:04;;;;;;;6.28;5.88;;;5.80;99.90;;;;;;5055410;28;20283;-62
2023/03/03 10:04:43;;;;;;;6.53;6.13;;;5.90;99.90;;;;;;5055553;28;20215;-61
2023/03/03 10:07:24;;;;;;;6.20;5.85;;;6.00;99.90;;;;;;5056410;28;20273;-60
2023/03/03 10:10:16;;;;;;;6.87;6.37;;;6.00;99.90;;;;;;5056317;28;20317;-60
2023/03/03 10:12:52;;;;;;;6.73;6.33;;;5.90;99.90;;;;;;5055671;28;20307;-60
2023/03/03 10:15:34;;;;;;;7.40;6.90;;;5.80;99.90;;;;;;5054544;28;20935;-61
2023/03/03 10:18:06;;;;;;;6.93;6.43;;;5.70;99.90;;;;;;5054280;28;20265;-61
2023/03/03 10:20:52;;;;;;;7.23;6.73;;;5.70;99.90;;;;;;5054161;28;20564;-60
2023/03/03 10:23:24;;;;;;;6.82;6.32;;;5.90;99.90;;;;;;5053837;28;20228;-61
2023/03/03 10:26:07;;;;;;;7.13;6.73;;;6.20;99.90;;;;;;5053865;28;20188;-61
2023/03/03 10:29:15;;;;;;;7.30;6.70;;;6.40;99.90;;;;;;5054009;28;20203;-61
2023/03/03 10:31:56;;;;;;;7.00;6.60;;;6.30;99.90;;;;;;5049307;28;20251;-61
2023/03/03 10:34:40;;;;;;;7.07;6.60;;;6.70;99.90;;;;;;5053165;28;20686;-60
2023/03/03 10:37:14;;;;;;;7.45;6.95;;;6.70;99.90;;;;;;5054878;28;20192;-61
2023/03/03 10:40:11;;;;;;;7.28;6.88;;;6.80;99.90;;;;;;5055991;28;20226;-61
2023/03/03 10:43:03;;;;;;;6.97;6.57;;;6.80;99.90;;;;;;5053059;28;20216;-61
2023/03/03 10:45:53;;;;;;;7.20;6.70;;;6.80;99.90;;;;;;5052640;28;20586;-61
2023/03/03 10:48:32;;;;;;;6.80;6.30;;;6.60;99.90;;;;;;5054114;28;20203;-61
2023/03/03 10:51:08;;;;;;;7.50;7.00;;;6.70;99.90;;;;;;5053650;28;20194;-60
2023/03/03 10:53:43;;;;;;;7.87;7.37;;;6.90;99.90;;;;;;5053572;28;20264;-61
2023/03/03 10:56:24;;;;;;;7.47;6.97;;;6.90;99.90;;;;;;5052781;28;20203;-61
2023/03/03 10:59:01;;;;;;;7.30;6.90;;;7.00;99.90;;;;;;5053399;28;20192;-59
2023/03/03 11:01:44;;;;;;;7.47;7.03;;;7.00;99.90;;;;;;5053113;28;20232;-61
2023/03/03 11:04:33;;;;;;;7.30;6.80;;;6.90;99.90;;;;;;5052848;28;20192;-61
2023/03/03 11:07:06;;;;;;;7.40;6.90;;;6.80;99.90;;;;;;5053531;28;20287;-61
2023/03/03 11:10:09;;;;;;;7.97;7.47;;;6.90;99.90;;;;;;5052945;28;20242;-61
2023/03/03 11:12:47;;;;;;;7.43;6.93;;;6.90;99.90;;;;;;5053023;28;20234;-61
2023/03/03 11:15:26;;;;;;;7.63;7.13;;;6.90;99.90;;;;;;5052558;28;20215;-61
2023/03/03 11:18:03;;;;;;;7.70;7.20;;;7.00;99.90;;;;;;5054803;28;20214;-60
2023/03/03 11:20:38;;;;;;;7.53;7.03;;;7.10;99.90;;;;;;5057365;28;20306;-60
2023/03/03 11:23:20;;;;;;;7.53;7.13;;;7.20;99.90;;;;;;5057143;28;20250;-61
2023/03/03 11:25:54;;;;;;;7.73;7.23;;;7.30;99.90;;;;;;5051806;28;20195;-61
2023/03/03 11:28:34;;;;;;;7.57;7.07;;;7.40;99.90;;;;;;5053011;28;20208;-60
2023/03/03 11:31:19;;;;;;;7.43;6.93;;;7.40;99.90;;;;;;5053862;28;20249;-61
2023/03/03 11:33:56;;;;;;;7.23;6.73;;;7.50;99.90;;;;;;5053922;28;20682;-60
2023/03/03 11:36:28;;;;;;;7.97;7.47;;;7.60;99.90;;;;;;5052739;28;20318;-61
2023/03/03 11:38:58;;;;;;;7.63;7.13;;;7.80;99.90;;;;;;5052713;28;20210;-61
2023/03/03 11:41:34;;;;;;;7.27;6.87;;;7.80;99.90;;;;;;5052599;28;20214;-60
2023/03/03 11:44:16;;;;;;;8.03;7.53;;;7.90;99.90;;;;;;5052579;28;20194;-61
2023/03/03 11:46:48;;;;;;;7.67;7.17;;;8.00;99.90;;;;;;5053080;28;20207;-61
2023/03/03 11:49:21;;;;;;;6.90;6.43;;;8.10;99.90;;;;;;5052249;28;20227;-62
2023/03/03 11:52:01;;;;;;;7.28;6.78;;;8.20;99.90;;;;;;5052363;28;20329;-61
2023/03/03 11:54:34;;;;;;;6.87;6.47;;;8.30;99.90;;;;;;5054179;28;20299;-61
2023/03/03 11:57:14;;;;;;;7.70;7.20;;;8.50;99.90;;;;;;5059183;28;20290;-62
2023/03/03 12:00:03;;;;;;;7.27;6.83;;;8.50;99.90;;;;;;5060952;28;20366;-61
2023/03/03 12:03:02;;;;;;;7.30;6.90;;;8.60;99.90;;;;;;5060472;28;20254;-61
2023/03/03 12:05:45;;;;;;;7.83;7.40;;;8.60;99.90;;;;;;5055858;28;20253;-60
2023/03/03 12:08:24;;;;;;;8.00;7.40;;;8.70;99.90;;;;;;5054049;28;20215;-61
2023/03/03 12:10:58;;;;;;;7.22;6.72;;;8.90;99.90;;;;;;5052392;28;20220;-61
2023/03/03 12:13:35;;;;;;;7.73;7.23;;;8.90;99.90;;;;;;5051796;28;20227;-61
2023/03/03 12:16:12;;;;;;;7.27;6.77;;;9.00;99.90;;;;;;5051873;28;20692;-61
2023/03/03 12:19:06;;;;;;;7.57;7.00;;;9.00;99.90;;;;;;5051960;28;20219;-60
2023/03/03 12:21:51;;;;;;;8.03;7.50;;;9.00;99.90;;;;;;5051987;28;20220;-61
2023/03/03 12:24:33;;;;;;;7.87;7.33;;;8.90;99.90;;;;;;5051462;28;20207;-62
2023/03/03 12:27:13;;;;;;;7.60;7.10;;;8.60;99.90;;;;;;5051893;28;20294;-60
2023/03/03 12:29:45;;;;;;;7.93;7.40;;;8.70;99.90;;;;;;5051079;28;20302;-61
2023/03/03 12:32:27;;;;;;;6.70;6.30;;;8.70;99.90;;;;;;5051436;28;20228;-60
2023/03/03 12:35:03;;;;;;;7.47;6.97;;;8.60;99.90;;;;;;5051340;28;20195;-61
2023/03/03 12:37:46;;;;;;;6.57;6.17;;;8.50;99.90;;;;;;5051763;28;20207;-60
2023/03/03 12:40:18;;;;;;;7.10;6.60;;;8.60;99.90;;;;;;5051994;28;20192;-60
2023/03/03 12:43:00;;;;;;;7.17;6.67;;;8.60;99.90;;;;;;5051764;28;20227;-62
2023/03/03 12:45:43;;;;;;;6.87;6.37;;;8.70;99.90;;;;;;5051693;28;20212;-61
2023/03/03 12:48:16;;;;;;;7.17;6.77;;;8.70;99.90;;;;;;5051060;28;20214;-62
2023/03/03 12:50:54;;;;;;;7.97;7.37;;;8.80;99.90;;;;;;5051347;28;20211;-61
2023/03/03 12:53:40;;;;;;;6.77;6.37;;;8.80;99.90;;;;;;5051052;28;20242;-61
2023/03/03 12:56:09;;;;;;;6.40;6.00;;;8.90;99.90;;;;;;5051115;28;20700;-61
2023/03/03 12:58:45;;;;;;;6.77;6.37;;;8.90;99.90;;;;;;5051279;28;20665;-61
2023/03/03 13:01:27;;;;;;;6.07;5.77;;;8.90;99.90;;;;;;5050894;28;20688;-61
2023/03/03 13:04:03;;;;;;;6.67;6.20;;;8.90;99.90;;;;;;5055606;28;20206;-60
2023/03/03 13:06:34;;;;;;;6.60;6.10;;;9.00;99.90;;;;;;5055574;28;20287;-60
2023/03/03 13:09:15;;;;;;;6.27;5.87;;;9.10;99.90;;;;;;5052105;28;20212;-61
2023/03/03 13:11:51;;;;;;;6.03;5.63;;;9.30;99.90;;;;;;5051259;28;20243;-61
2023/03/03 13:14:27;;;;;;;6.70;6.30;;;9.40;99.90;;;;;;5054370;28;20256;-60
2023/03/03 13:17:03;;;;;;;6.00;5.60;;;9.40;99.90;;;;;;5054308;28;20213;-61
2023/03/03 13:19:37;;;;;;;6.00;5.60;;;9.40;99.90;;;;;;5051182;28;20199;-60
2023/03/03 13:22:13;;;;;;;6.03;5.63;;;9.60;99.90;;;;;;5051060;28;20594;-60
2023/03/03 13:24:54;;;;;;;6.50;6.00;;;9.70;99.90;;;;;;5050775;28;20188;-61